Time;durP1;ratioP1;P1;durP2;ratioP2;P2;SDS_P1;SDS_P2;PMS_P1;PMS_P2;Temp;Humidity;BMP_temperature;BMP_pressure;BME280_temperature;BME280_humidity;BME280_pressure;Samples;Min_cycle;Max_cycle;Signal;HPM_P1;HPM_P2
2021/07/07 00:00:05;;;;;;;2.97;0.25;;;;;;;14.00;48.08;101068.94;5039833;28;20037;-68
2021/07/07 00:02:30;;;;;;;2.28;0.28;;;;;;;13.97;48.12;101069.13;5041003;28;20413;-71
2021/07/07 00:04:55;;;;;;;2.65;0.57;;;;;;;14.01;47.66;101075.88;5038425;28;20041;-70
2021/07/07 00:07:37;;;;;;;2.25;0.35;;;;;;;14.03;47.74;101079.28;5042153;28;20040;-70
2021/07/07 00:10:05;;;;;;;9.02;0.52;;;;;;;14.07;47.45;101080.84;5035895;28;20154;-70
2021/07/07 00:12:31;;;;;;;3.50;0.50;;;;;;;14.10;47.46;101075.44;5042111;28;20060;-70
2021/07/07 00:14:57;;;;;;;4.38;0.90;;;;;;;13.98;47.70;101081.31;5040772;28;20128;-70
2021/07/07 00:17:23;;;;;;;1.95;0.68;;;;;;;13.90;47.76;101087.81;5049779;28;20032;-70
2021/07/07 00:19:49;;;;;;;4.68;0.85;;;;;;;13.82;47.56;101082.09;5041793;28;20029;-70
2021/07/07 00:22:15;;;;;;;3.72;0.63;;;;;;;13.82;47.54;101087.34;5042428;28;20029;-70
2021/07/07 00:24:41;;;;;;;4.10;0.77;;;;;;;13.84;47.68;101085.50;5041301;28;20056;-68
2021/07/07 00:27:06;;;;;;;2.45;0.60;;;;;;;13.76;47.67;101079.75;5039783;28;20080;-68
2021/07/07 00:29:32;;;;;;;2.25;0.77;;;;;;;13.92;47.47;101088.59;5043376;28;20082;-68
2021/07/07 00:31:58;;;;;;;2.78;0.50;;;;;;;13.83;47.69;101090.81;5039965;28;20025;-68
2021/07/07 00:34:23;;;;;;;3.88;0.35;;;;;;;13.84;47.59;101088.13;5040806;28;20523;-69
2021/07/07 00:36:48;;;;;;;7.28;0.40;;;;;;;13.77;47.87;101088.50;5039154;28;20033;-67
2021/07/07 00:39:14;;;;;;;2.25;0.73;;;;;;;13.81;47.58;101084.78;5041067;28;20025;-68
2021/07/07 00:41:39;;;;;;;1.27;0.30;;;;;;;13.91;47.49;101086.03;5041699;28;20628;-69
2021/07/07 00:44:05;;;;;;;4.63;0.60;;;;;;;13.69;48.23;101089.72;5037190;28;20060;-68
2021/07/07 00:46:31;;;;;;;4.60;0.57;;;;;;;13.68;47.93;101082.78;5042701;28;20037;-67
2021/07/07 00:48:56;;;;;;;7.07;0.50;;;;;;;13.72;47.84;101091.38;5039790;28;20128;-67
2021/07/07 00:51:22;;;;;;;1.55;0.50;;;;;;;13.63;48.11;101091.81;5036711;28;20421;-68
2021/07/07 00:53:50;;;;;;;3.40;0.75;;;;;;;12.88;50.41;101085.75;5040037;28;20071;-68
2021/07/07 00:56:17;;;;;;;1.58;0.35;;;;;;;13.62;48.21;101104.09;5041568;28;20029;-67
2021/07/07 00:58:46;;;;;;;3.67;0.40;;;;;;;13.80;47.52;101097.06;5037962;28;20044;-68
2021/07/07 01:01:12;;;;;;;1.95;0.40;;;;;;;13.66;47.91;101099.56;5038865;28;20069;-68
2021/07/07 01:03:37;;;;;;;5.80;0.38;;;;;;;13.40;48.74;101104.25;5040519;28;20097;-68
2021/07/07 01:06:03;;;;;;;2.88;0.52;;;;;;;13.65;47.66;101100.47;5040713;28;20082;-69
2021/07/07 01:08:29;;;;;;;1.02;0.30;;;;;;;13.57;48.31;101107.88;5040770;28;20033;-67
2021/07/07 01:10:55;;;;;;;2.65;0.47;;;;;;;13.71;47.87;101115.94;5046212;28;20070;-67
2021/07/07 01:13:21;;;;;;;3.70;0.43;;;;;;;13.53;47.91;101104.50;5043652;28;20095;-68
2021/07/07 01:15:47;;;;;;;3.63;0.50;;;;;;;13.75;47.38;101111.38;5038606;28;20481;-68
2021/07/07 01:18:13;;;;;;;3.42;0.60;;;;;;;13.57;48.09;101118.38;5039614;28;20264;-69
2021/07/07 01:20:40;;;;;;;2.97;0.40;;;;;;;13.59;47.88;101119.16;5039654;28;20063;-68
2021/07/07 01:23:06;;;;;;;1.80;0.57;;;;;;;13.72;47.33;101123.75;5041596;28;20081;-67
2021/07/07 01:25:33;;;;;;;4.93;0.60;;;;;;;13.50;48.21;101126.53;5042805;28;20443;-70
2021/07/07 01:28:02;;;;;;;3.53;0.50;;;;;;;13.05;49.43;101140.91;5040450;28;20059;-71
2021/07/07 01:30:28;;;;;;;4.10;0.73;;;;;;;13.41;48.40;101140.09;5040983;28;20039;-70
2021/07/07 01:32:54;;;;;;;4.07;0.40;;;;;;;13.45;48.31;101140.78;5039121;28;20304;-70
2021/07/07 01:35:21;;;;;;;4.97;1.60;;;;;;;13.35;48.56;101144.78;5038846;28;20032;-71
2021/07/07 01:37:47;;;;;;;2.25;0.57;;;;;;;13.40;48.35;101138.38;5038581;28;20041;-72
2021/07/07 01:40:15;;;;;;;3.60;0.52;;;;;;;13.37;48.64;101143.78;5039281;28;20029;-71
2021/07/07 01:42:40;;;;;;;1.65;0.40;;;;;;;13.35;48.26;101134.28;5043161;28;20048;-71
2021/07/07 01:45:08;;;;;;;3.10;0.75;;;;;;;13.27;49.02;101142.50;5039874;28;20033;-71
2021/07/07 01:47:33;;;;;;;2.90;0.45;;;;;;;13.25;48.98;101136.47;5055980;28;20059;-71
2021/07/07 01:50:00;;;;;;;2.35;0.98;;;;;;;13.22;49.33;101136.63;5040760;28;20493;-70
2021/07/07 01:52:26;;;;;;;2.47;0.50;;;;;;;13.22;49.33;101136.63;5042053;28;20059;-71
2021/07/07 01:54:51;;;;;;;2.35;0.40;;;;;;;13.17;49.58;101136.00;5039751;28;20028;-71
2021/07/07 01:57:17;;;;;;;3.78;0.40;;;;;;;13.18;49.39;101143.78;5038922;28;20040;-72
2021/07/07 01:59:42;;;;;;;4.88;0.55;;;;;;;13.18;49.64;101148.19;5040664;28;20083;-71
2021/07/07 02:02:08;;;;;;;5.00;0.57;;;;;;;13.23;49.20;101139.19;5042078;28;20037;-72
2021/07/07 02:04:34;;;;;;;3.70;1.17;;;;;;;13.19;49.42;101137.63;5045328;28;20055;-71
2021/07/07 02:06:59;;;;;;;1.88;0.70;;;;;;;13.22;49.25;101134.84;5052001;28;20029;-71
2021/07/07 02:09:26;;;;;;;2.53;0.50;;;;;;;13.21;49.52;101140.19;5043861;28;20037;-72
2021/07/07 02:11:52;;;;;;;2.88;0.57;;;;;;;13.17;49.68;101141.25;5042531;28;20079;-71
2021/07/07 02:14:19;;;;;;;1.13;0.50;;;;;;;13.15;49.78;101140.47;5043985;28;20029;-71
2021/07/07 02:16:44;;;;;;;2.88;0.40;;;;;;;12.97;49.95;101140.41;5029808;28;20051;-71
2021/07/07 02:19:11;;;;;;;2.83;0.82;;;;;;;13.02;49.85;101135.78;5043326;28;20112;-72
2021/07/07 02:21:37;;;;;;;1.55;0.50;;;;;;;13.09;49.53;101139.84;5042963;28;20563;-72
2021/07/07 02:24:02;;;;;;;3.28;0.50;;;;;;;13.09;49.43;101134.59;5045563;28;20033;-72
2021/07/07 02:26:28;;;;;;;3.40;0.52;;;;;;;12.99;49.78;101130.69;5042226;28;20108;-71
2021/07/07 02:28:53;;;;;;;3.65;0.38;;;;;;;12.97;49.77;101135.16;5046202;28;20060;-71
2021/07/07 02:31:19;;;;;;;5.60;0.60;;;;;;;12.89;49.73;101139.88;5042541;28;20118;-72
2021/07/07 02:33:44;;;;;;;3.33;0.60;;;;;;;12.83;50.07;101142.81;5042710;28;20045;-71
2021/07/07 02:36:10;;;;;;;1.88;0.55;;;;;;;12.85;50.22;101146.22;5046122;28;20082;-71
2021/07/07 02:38:35;;;;;;;3.30;0.60;;;;;;;12.80;50.06;101150.81;5043160;28;20033;-71
2021/07/07 02:41:01;;;;;;;3.45;0.60;;;;;;;12.77;50.11;101143.94;5042230;28;20029;-71
2021/07/07 02:43:27;;;;;;;1.60;0.65;;;;;;;12.79;50.35;101138.63;5043802;28;20512;-69
2021/07/07 02:45:52;;;;;;;2.10;0.50;;;;;;;12.79;49.94;101146.50;5044728;28;20039;-70
2021/07/07 02:48:19;;;;;;;1.23;0.35;;;;;;;12.73;50.40;101144.13;5046227;28;20040;-71
2021/07/07 02:50:45;;;;;;;3.10;0.73;;;;;;;12.67;50.29;101148.72;5041892;28;20039;-70
2021/07/07 02:53:12;;;;;;;2.25;0.90;;;;;;;12.64;50.73;101158.47;5044365;28;20048;-70
2021/07/07 02:55:38;;;;;;;4.63;0.80;;;;;;;12.67;50.20;101156.59;5045035;28;20052;-71
2021/07/07 02:58:05;;;;;;;3.13;0.30;;;;;;;12.70;50.38;101161.72;5042911;28;20033;-71
2021/07/07 03:00:36;;;;;;;2.30;0.63;;;;;;;12.54;50.77;101168.53;5053928;28;20044;-70
2021/07/07 03:03:12;;;;;;;;;;;;;;;12.56;50.77;101169.31;5044657;28;20034;-69
2021/07/07 03:05:50;;;;;;;3.45;0.88;;;;;;;12.46;51.08;101175.84;5044836;28;19921;-73
2021/07/07 03:08:18;;;;;;;2.65;0.60;;;;;;;12.43;51.07;101176.00;5048562;28;20029;-73
2021/07/07 03:10:45;;;;;;;6.65;0.80;;;;;;;12.40;51.11;101179.63;5050172;28;20537;-75
2021/07/07 03:13:11;;;;;;;2.92;0.77;;;;;;;12.42;51.45;101169.03;5046916;28;20104;-75
2021/07/07 03:15:38;;;;;;;2.28;0.55;;;;;;;12.44;51.57;101172.44;5052114;28;20044;-76
2021/07/07 03:18:05;;;;;;;3.97;0.80;;;;;;;12.10;52.63;101184.38;5055855;28;20025;-75
2021/07/07 03:20:33;;;;;;;1.73;0.70;;;;;;;12.45;51.58;101184.66;5046523;28;20043;-75
2021/07/07 03:22:59;;;;;;;4.25;0.65;;;;;;;12.50;51.40;101185.31;5048548;28;20409;-75
2021/07/07 03:25:25;;;;;;;3.88;0.70;;;;;;;12.50;51.75;101185.31;5045681;28;20252;-71
2021/07/07 03:27:51;;;;;;;1.73;0.80;;;;;;;12.57;51.72;101180.66;5041282;28;20033;-72
2021/07/07 03:30:17;;;;;;;2.40;1.00;;;;;;;12.65;51.37;101186.41;5041791;28;20398;-72
2021/07/07 03:32:44;;;;;;;2.28;1.00;;;;;;;12.58;51.61;101191.06;5045770;28;20429;-72
2021/07/07 03:35:10;;;;;;;4.03;1.08;;;;;;;12.56;51.82;101187.66;5043272;28;20041;-72
2021/07/07 03:37:36;;;;;;;1.83;0.75;;;;;;;12.61;51.35;101184.84;5027957;28;20044;-71
2021/07/07 03:40:06;;;;;;;1.80;0.90;;;;;;;12.57;51.80;101199.84;5044517;28;21577;-71
2021/07/07 03:42:32;;;;;;;2.00;0.90;;;;;;;12.48;52.22;101195.84;5042847;28;20045;-71
2021/07/07 03:44:58;;;;;;;11.93;1.08;;;;;;;12.50;52.29;101208.91;5039296;28;20033;-69
2021/07/07 03:47:24;;;;;;;3.38;1.10;;;;;;;12.61;51.88;101206.66;5046122;28;20036;-69
2021/07/07 03:49:50;;;;;;;3.30;1.20;;;;;;;12.73;51.55;101200.06;5042287;28;20072;-69
2021/07/07 03:52:16;;;;;;;5.35;1.33;;;;;;;12.56;51.65;101206.03;5042463;28;20049;-68
2021/07/07 03:54:41;;;;;;;2.72;0.68;;;;;;;12.75;51.46;101208.72;5046964;28;20112;-68
2021/07/07 03:57:07;;;;;;;4.53;0.80;;;;;;;12.65;51.93;101217.88;5045983;28;20032;-69
2021/07/07 03:59:32;;;;;;;1.85;0.85;;;;;;;12.78;51.45;101212.97;5042152;28;20386;-69
2021/07/07 04:01:58;;;;;;;4.72;1.38;;;;;;;12.67;51.89;101211.66;5042837;28;20029;-70
2021/07/07 04:04:23;;;;;;;3.30;1.08;;;;;;;12.71;51.34;101217.63;5043681;28;20460;-67
2021/07/07 04:06:49;;;;;;;2.72;0.95;;;;;;;12.83;51.14;101224.13;5039306;28;20037;-68
2021/07/07 04:09:15;;;;;;;4.65;1.13;;;;;;;12.75;51.17;101234.09;5044022;28;20025;-69
2021/07/07 04:11:41;;;;;;;3.10;1.20;;;;;;;12.85;51.36;101238.88;5043488;28;20059;-69
2021/07/07 04:14:08;;;;;;;3.33;0.98;;;;;;;12.93;51.65;101238.53;5041821;28;20025;-69
2021/07/07 04:16:34;;;;;;;5.40;1.25;;;;;;;13.04;50.85;101231.03;5042312;28;20037;-68
2021/07/07 04:18:59;;;;;;;1.75;0.98;;;;;;;13.06;50.92;101234.44;5041292;28;20021;-66
2021/07/07 04:21:26;;;;;;;4.72;0.95;;;;;;;13.14;50.86;101241.97;5040266;28;20067;-67
2021/07/07 04:23:51;;;;;;;2.03;0.85;;;;;;;13.18;50.79;101237.44;5041443;28;20058;-69
2021/07/07 04:26:17;;;;;;;3.05;1.00;;;;;;;13.30;50.43;101245.59;5037952;28;20033;-67
2021/07/07 04:28:42;;;;;;;3.63;1.00;;;;;;;13.35;50.53;101242.78;5039652;28;20052;-70
2021/07/07 04:31:08;;;;;;;3.17;1.33;;;;;;;13.51;50.07;101241.13;5039997;28;20025;-69
2021/07/07 04:33:33;;;;;;;4.13;1.42;;;;;;;13.48;49.71;101241.28;5040388;28;20052;-70
2021/07/07 04:35:59;;;;;;;2.15;0.85;;;;;;;13.73;49.12;101240.16;5041447;28;20044;-67
2021/07/07 04:38:24;;;;;;;3.30;0.85;;;;;;;13.77;49.16;101256.66;5042000;28;20092;-68
2021/07/07 04:40:50;;;;;;;2.13;0.80;;;;;;;13.71;49.20;101263.03;5039800;28;20079;-69
2021/07/07 04:43:15;;;;;;;2.75;1.10;;;;;;;13.77;49.18;101261.91;5040222;28;20076;-69
2021/07/07 04:45:41;;;;;;;4.20;1.05;;;;;;;13.77;49.23;101252.22;5040598;28;20052;-66
2021/07/07 04:48:06;;;;;;;4.80;1.00;;;;;;;14.09;48.67;101260.34;5037862;28;20167;-70
2021/07/07 04:50:32;;;;;;;1.23;0.40;;;;;;;14.34;48.33;101262.59;5067467;28;20036;-72
2021/07/07 04:52:57;;;;;;;3.90;0.60;;;;;;;14.32;48.05;101265.31;5039140;28;20121;-72
2021/07/07 04:55:23;;;;;;;4.97;1.15;;;;;;;14.50;47.40;101273.22;5038998;28;20121;-69
2021/07/07 04:57:48;;;;;;;4.03;0.80;;;;;;;14.49;47.31;101276.81;5041833;28;20124;-69
2021/07/07 05:00:20;;;;;;;3.17;1.08;;;;;;;14.48;47.31;101277.75;5041406;28;20507;-68
2021/07/07 05:02:46;;;;;;;2.78;0.82;;;;;;;14.60;47.27;101269.22;5040669;28;20055;-71
2021/07/07 05:05:17;;;;;;;3.53;1.55;;;;;;;14.86;46.82;101278.41;5044152;28;20500;-68
2021/07/07 05:07:43;;;;;;;2.70;0.85;;;;;;;15.12;46.46;101279.66;5041992;28;20041;-71
2021/07/07 05:10:10;;;;;;;4.10;1.00;;;;;;;16.41;42.74;101272.56;5042648;28;20414;-69
2021/07/07 05:12:37;;;;;;;1.77;0.82;;;;;;;18.66;38.27;101267.25;5041545;28;20044;-68
2021/07/07 05:15:04;;;;;;;1.70;0.70;;;;;;;20.36;34.78;101269.31;5036402;28;21599;-71
2021/07/07 05:17:29;;;;;;;3.17;0.70;;;;;;;21.85;30.99;101262.16;5043790;28;20035;-71
2021/07/07 05:19:57;;;;;;;1.27;0.60;;;;;;;21.67;31.77;101264.50;5042253;28;20120;-67
2021/07/07 05:22:23;;;;;;;4.82;0.55;;;;;;;22.30;30.97;101272.63;5040282;28;20482;-67
2021/07/07 05:24:48;;;;;;;4.38;0.50;;;;;;;22.49;29.96;101272.75;5039975;28;20115;-67
2021/07/07 05:27:14;;;;;;;2.05;0.45;;;;;;;22.72;30.44;101273.50;5036718;28;20059;-67
2021/07/07 05:29:39;;;;;;;1.90;0.40;;;;;;;22.72;30.10;101278.00;5040543;28;20045;-66
2021/07/07 05:32:06;;;;;;;2.22;0.40;;;;;;;22.28;30.22;101279.91;5038974;28;20044;-68
2021/07/07 05:34:32;;;;;;;2.28;0.40;;;;;;;22.52;29.82;101288.47;5041117;28;20079;-69
2021/07/07 05:36:58;;;;;;;2.03;0.52;;;;;;;22.71;30.25;101287.78;5035267;28;20077;-68
2021/07/07 05:39:23;;;;;;;2.25;0.40;;;;;;;23.05;29.61;101286.69;5039455;28;20021;-69
2021/07/07 05:41:49;;;;;;;2.72;0.82;;;;;;;23.31;28.59;101282.63;5037422;28;20498;-68
2021/07/07 05:44:14;;;;;;;2.20;0.52;;;;;;;23.23;29.39;101292.22;5049027;28;20021;-69
2021/07/07 05:46:40;;;;;;;3.38;0.60;;;;;;;22.20;31.09;101287.66;5044220;28;20087;-69
2021/07/07 05:49:05;;;;;;;9.25;0.85;;;;;;;23.65;28.48;101290.28;5043198;28;20038;-69
2021/07/07 05:51:31;;;;;;;4.53;1.50;;;;;;;24.01;27.35;101293.31;5037922;28;20036;-68
2021/07/07 05:53:56;;;;;;;1.50;0.65;;;;;;;24.71;26.56;101296.66;5040036;28;20044;-68
2021/07/07 05:56:22;;;;;;;1.83;0.30;;;;;;;25.16;26.20;101300.47;5038571;28;20033;-68
2021/07/07 05:58:48;;;;;;;3.60;1.13;;;;;;;24.60;26.25;101294.16;5036895;28;20497;-68
2021/07/07 06:01:13;;;;;;;2.42;0.30;;;;;;;24.90;25.73;101301.09;5037914;28;20041;-68
2021/07/07 06:03:40;;;;;;;2.38;0.57;;;;;;;25.19;25.48;101302.84;5040298;28;20151;-69
2021/07/07 06:06:06;;;;;;;1.83;0.25;;;;;;;25.61;24.86;101297.88;5039782;28;20609;-69
2021/07/07 06:08:32;;;;;;;2.40;0.35;;;;;;;26.83;23.96;101301.81;5038770;28;20408;-69
2021/07/07 06:10:57;;;;;;;0.95;0.20;;;;;;;27.02;22.41;101290.81;5040257;28;20036;-69
2021/07/07 06:13:23;;;;;;;2.45;0.57;;;;;;;26.07;23.53;101296.03;5036011;28;20164;-70
2021/07/07 06:15:51;;;;;;;3.33;0.30;;;;;;;25.39;24.62;101303.59;5039107;28;20032;-69
2021/07/07 06:18:17;;;;;;;2.20;0.20;;;;;;;26.72;23.74;101302.06;5039612;28;20465;-68
2021/07/07 06:20:42;;;;;;;4.15;0.30;;;;;;;27.45;22.74;101301.59;5039255;28;20047;-69
2021/07/07 06:23:08;;;;;;;2.08;0.55;;;;;;;27.95;22.64;101307.97;5038552;28;20059;-68
2021/07/07 06:25:34;;;;;;;1.45;0.20;;;;;;;27.49;22.92;101308.31;5041131;28;20485;-69
2021/07/07 06:28:00;;;;;;;5.72;0.60;;;;;;;27.56;22.55;101312.03;5040269;28;20033;-69
2021/07/07 06:30:27;;;;;;;3.05;1.10;;;;;;;26.47;23.27;101313.44;5036132;28;20041;-69
2021/07/07 06:32:54;;;;;;;4.30;2.05;;;;;;;26.77;23.56;101311.31;5036879;28;20099;-68
2021/07/07 06:35:21;;;;;;;2.17;0.40;;;;;;;25.36;25.44;101318.13;5041476;28;20086;-69
2021/07/07 06:37:49;;;;;;;4.82;0.30;;;;;;;22.93;28.27;101313.44;5048833;28;20037;-68
2021/07/07 06:40:16;;;;;;;2.60;0.30;;;;;;;23.09;29.38;101315.59;5046670;28;20105;-68
2021/07/07 06:42:42;;;;;;;3.90;0.30;;;;;;;22.42;29.78;101319.50;5038828;28;20029;-69
2021/07/07 06:45:09;;;;;;;2.60;0.30;;;;;;;21.51;31.13;101318.03;5037142;28;20452;-68
2021/07/07 06:47:35;;;;;;;4.05;0.20;;;;;;;20.84;32.42;101325.03;5051872;28;20096;-69
2021/07/07 06:50:03;;;;;;;1.42;0.40;;;;;;;20.73;32.71;101322.31;5038336;28;20486;-69
2021/07/07 06:52:29;;;;;;;2.70;0.32;;;;;;;20.37;33.31;101325.91;5039015;28;20872;-69
2021/07/07 06:54:54;;;;;;;3.72;0.22;;;;;;;20.50;33.21;101326.69;5043192;28;20036;-70
2021/07/07 06:57:20;;;;;;;2.47;0.20;;;;;;;20.40;33.92;101331.84;5037501;28;20468;-70
2021/07/07 06:59:45;;;;;;;4.75;0.40;;;;;;;20.33;34.16;101328.81;5040402;28;20029;-69
2021/07/07 07:02:11;;;;;;;2.65;0.10;;;;;;;20.71;34.38;101332.19;5038875;28;20026;-69
2021/07/07 07:04:36;;;;;;;4.93;0.17;;;;;;;23.17;29.87;101331.78;5039364;28;20040;-68
2021/07/07 07:07:03;;;;;;;0.40;0.10;;;;;;;25.52;26.63;101330.88;5037115;28;20029;-70
2021/07/07 07:09:28;;;;;;;1.75;0.70;;;;;;;27.89;23.67;101331.78;5040675;28;20492;-69
2021/07/07 07:11:54;;;;;;;4.90;0.60;;;;;;;28.62;21.86;101326.63;5038830;28;20033;-69
2021/07/07 07:14:20;;;;;;;2.38;0.20;;;;;;;29.51;21.23;101339.00;5039090;28;20107;-69
2021/07/07 07:16:45;;;;;;;2.00;0.40;;;;;;;29.23;20.80;101335.09;5042510;28;20171;-69
2021/07/07 07:19:14;;;;;;;2.80;0.43;;;;;;;28.61;21.34;101341.91;5039064;28;20237;-69
2021/07/07 07:21:40;;;;;;;1.50;0.17;;;;;;;28.70;21.52;101340.94;5040392;28;20033;-69
2021/07/07 07:24:06;;;;;;;3.15;0.20;;;;;;;27.67;23.09;101337.75;5038930;28;20575;-69
2021/07/07 07:26:32;;;;;;;5.53;0.68;;;;;;;26.90;23.84;101341.22;5039456;28;20037;-69
2021/07/07 07:28:59;;;;;;;0.70;0.17;;;;;;;25.28;26.17;101343.91;5036489;28;20045;-69
2021/07/07 07:31:24;;;;;;;1.60;0.30;;;;;;;23.91;28.45;101345.84;5037883;28;20029;-69
2021/07/07 07:33:50;;;;;;;2.05;0.63;;;;;;;24.00;28.69;101355.72;5046727;28;20467;-70
2021/07/07 07:36:17;;;;;;;2.55;0.38;;;;;;;22.48;30.12;101350.97;5038640;28;20203;-69
2021/07/07 07:38:45;;;;;;;3.95;0.35;;;;;;;21.14;32.21;101358.16;5041961;28;20025;-70
2021/07/07 07:41:11;;;;;;;1.20;0.40;;;;;;;20.81;34.19;101348.28;5036304;28;20033;-69
2021/07/07 07:43:38;;;;;;;3.60;0.40;;;;;;;21.02;33.62;101348.44;5038903;28;20095;-69
2021/07/07 07:46:04;;;;;;;2.67;0.35;;;;;;;21.07;33.31;101351.63;5040088;28;20033;-69
2021/07/07 07:48:30;;;;;;;3.53;0.80;;;;;;;21.62;32.61;101349.13;5042069;28;20485;-69
2021/07/07 07:50:56;;;;;;;1.55;0.28;;;;;;;21.68;33.07;101352.13;5036207;28;20574;-69
2021/07/07 07:53:22;;;;;;;4.63;0.35;;;;;;;24.43;27.34;101347.31;5038453;28;20032;-69
2021/07/07 07:55:48;;;;;;;1.95;0.38;;;;;;;26.72;25.15;101359.22;5042358;28;20147;-70
2021/07/07 07:58:17;;;;;;;1.48;0.20;;;;;;;28.11;23.41;101357.16;5052820;28;20072;-70
2021/07/07 08:00:45;;;;;;;2.78;0.43;;;;;;;27.46;24.46;101355.13;5040803;28;20427;-69
2021/07/07 08:03:10;;;;;;;1.70;0.30;;;;;;;26.66;25.34;101352.63;5037864;28;20024;-69
2021/07/07 08:05:36;;;;;;;1.63;0.17;;;;;;;25.78;26.00;101349.75;5039272;28;20041;-69
2021/07/07 08:08:02;;;;;;;1.45;0.30;;;;;;;24.97;27.53;101355.72;5037116;28;20109;-69
2021/07/07 08:10:28;;;;;;;4.63;0.38;;;;;;;24.35;28.22;101354.34;5046269;28;20114;-70
2021/07/07 08:12:54;;;;;;;2.67;1.08;;;;;;;23.27;29.58;101347.88;5038068;28;20025;-70
2021/07/07 08:15:21;;;;;;;2.70;0.30;;;;;;;22.50;30.60;101365.00;5040485;28;20055;-69
2021/07/07 08:17:47;;;;;;;7.88;3.30;;;;;;;21.82;31.79;101363.47;5038344;28;20033;-69
2021/07/07 08:20:13;;;;;;;3.15;0.45;;;;;;;21.91;32.36;101365.41;5037709;28;20044;-69
2021/07/07 08:22:39;;;;;;;4.47;0.20;;;;;;;22.38;32.56;101368.66;5037418;28;20033;-70
2021/07/07 08:25:07;;;;;;;0.90;0.30;;;;;;;22.32;32.25;101358.56;5036263;28;20037;-69
2021/07/07 08:27:33;;;;;;;2.65;0.30;;;;;;;22.79;31.19;101361.75;5049364;28;21982;-69
2021/07/07 08:29:59;;;;;;;3.25;0.32;;;;;;;21.61;32.91;101366.91;5043291;28;20509;-69
2021/07/07 08:32:24;;;;;;;3.15;0.32;;;;;;;22.73;30.51;101365.75;5032387;28;20107;-70
2021/07/07 08:34:50;;;;;;;2.13;0.20;;;;;;;23.32;29.96;101369.66;5038267;28;20033;-68
2021/07/07 08:37:15;;;;;;;1.95;0.20;;;;;;;23.29;29.27;101361.91;5037583;28;20029;-70
2021/07/07 08:39:42;;;;;;;1.95;0.20;;;;;;;24.01;28.58;101368.06;5039817;28;20061;-69
2021/07/07 08:42:07;;;;;;;2.47;0.43;;;;;;;24.74;27.57;101375.72;5038105;28;20518;-69
2021/07/07 08:44:34;;;;;;;4.97;0.55;;;;;;;22.76;29.49;101369.97;5036696;28;20055;-70
2021/07/07 08:46:59;;;;;;;6.03;1.52;;;;;;;23.37;29.29;101372.75;5039317;28;20043;-70
2021/07/07 08:49:25;;;;;;;3.75;0.50;;;;;;;23.68;29.21;101375.41;5037831;28;20067;-69
2021/07/07 08:51:51;;;;;;;3.97;0.20;;;;;;;22.91;29.64;101371.34;5038264;28;20033;-69
2021/07/07 08:54:18;;;;;;;2.95;0.40;;;;;;;24.16;28.48;101372.03;5038290;28;20040;-70
2021/07/07 08:56:45;;;;;;;2.50;0.20;;;;;;;23.82;28.80;101372.34;5043099;28;20041;-67
2021/07/07 08:59:14;;;;;;;3.00;0.30;;;;;;;25.65;26.77;101370.69;5039949;28;20068;-69
2021/07/07 09:01:59;;;;;;;0.65;0.20;;;;;;;25.56;26.27;101382.28;5058184;28;20055;-69
2021/07/07 09:04:31;;;;;;;2.47;0.28;;;;;;;27.14;24.21;101371.06;5039396;28;20029;-68
2021/07/07 09:06:59;;;;;;;3.10;0.40;;;;;;;26.77;24.66;101366.78;5040023;28;20037;-69
2021/07/07 09:09:38;;;;;;;3.00;0.55;;;;;;;27.11;23.81;101370.38;5043909;28;20087;-71
2021/07/07 09:12:24;;;;;;;3.33;0.50;;;;;;;28.00;21.90;101362.03;5044215;28;20717;-72
2021/07/07 09:15:19;;;;;;;3.80;0.20;;;;;;;28.05;22.35;101373.94;5025278;28;20037;-70
2021/07/07 09:17:48;;;;;;;1.65;0.30;;;;;;;28.43;23.24;101368.97;5025490;28;20041;-70
2021/07/07 09:20:28;;;;;;;2.65;0.40;;;;;;;27.90;23.00;101370.25;5039353;28;20039;-69
2021/07/07 09:23:12;;;;;;;2.20;0.40;;;;;;;27.60;23.77;101371.63;5046246;28;20043;-70
2021/07/07 09:25:56;;;;;;;1.48;0.40;;;;;;;26.60;25.73;101371.16;5044338;28;20055;-70
2021/07/07 09:28:25;;;;;;;2.50;0.30;;;;;;;25.70;26.71;101372.91;5041801;28;20371;-70
2021/07/07 09:30:53;;;;;;;1.40;0.30;;;;;;;24.92;26.37;101373.16;5024789;28;20047;-70
2021/07/07 09:33:21;;;;;;;1.80;0.40;;;;;;;23.29;28.73;101375.25;5042121;28;20060;-69
2021/07/07 09:35:48;;;;;;;4.60;0.60;;;;;;;24.38;28.27;101378.94;5035485;28;20453;-70
2021/07/07 09:38:14;;;;;;;1.45;0.45;;;;;;;23.89;29.43;101380.69;5039807;28;20029;-70
2021/07/07 09:40:43;;;;;;;5.03;0.45;;;;;;;23.83;29.34;101387.41;5039369;28;20049;-70
2021/07/07 09:43:13;;;;;;;10.35;0.52;;;;;;;23.87;29.15;101387.16;5040416;28;20048;-70
2021/07/07 09:45:44;;;;;;;6.38;0.40;;;;;;;24.36;28.49;101386.22;5038642;28;20037;-70
2021/07/07 09:48:14;;;;;;;6.55;0.77;;;;;;;25.06;27.90;101388.75;5039048;28;20689;-69
2021/07/07 09:50:41;;;;;;;2.65;0.50;;;;;;;25.56;26.09;101384.97;5040032;28;20652;-69
2021/07/07 09:53:12;;;;;;;5.28;0.63;;;;;;;26.44;25.63;101382.56;5039143;28;20036;-70
2021/07/07 09:55:40;;;;;;;4.20;0.30;;;;;;;25.98;25.77;101381.78;5036685;28;20041;-70
2021/07/07 09:58:05;;;;;;;3.65;0.57;;;;;;;25.45;26.58;101389.47;5035520;28;20032;-69
2021/07/07 10:00:39;;;;;;;2.10;0.40;;;;;;;24.90;27.33;101375.13;5034435;28;20033;-70
2021/07/07 10:03:06;;;;;;;3.58;0.93;;;;;;;25.46;27.90;101382.28;5036501;28;20049;-71
2021/07/07 10:05:39;;;;;;;3.70;0.88;;;;;;;25.35;27.57;101399.38;5038704;28;20045;-70
2021/07/07 10:08:06;;;;;;;5.28;1.08;;;;;;;24.27;27.07;101394.25;5037175;28;20030;-71
2021/07/07 10:10:32;;;;;;;4.18;0.82;;;;;;;24.20;28.07;101404.63;5038029;28;20032;-72
2021/07/07 10:12:58;;;;;;;3.80;0.68;;;;;;;24.07;28.71;101401.38;5039331;28;20490;-70
2021/07/07 10:15:27;;;;;;;3.17;0.70;;;;;;;23.69;29.22;101403.78;5038623;28;20036;-70
2021/07/07 10:17:53;;;;;;;4.85;0.60;;;;;;;23.71;28.81;101407.16;5046322;28;20040;-70
2021/07/07 10:20:20;;;;;;;7.70;0.40;;;;;;;24.68;28.49;101403.00;5039288;28;20286;-70
2021/07/07 10:22:48;;;;;;;5.53;0.70;;;;;;;24.65;28.00;101404.97;5036611;28;20036;-70
2021/07/07 10:25:18;;;;;;;1.70;0.50;;;;;;;25.03;28.15;101405.94;5042674;28;20036;-70
2021/07/07 10:27:45;;;;;;;4.07;0.63;;;;;;;26.03;25.92;101400.91;5039437;28;20033;-70
2021/07/07 10:30:12;;;;;;;6.40;0.65;;;;;;;26.53;25.51;101407.59;5039858;28;20511;-70
2021/07/07 10:32:37;;;;;;;3.03;0.80;;;;;;;26.81;25.85;101411.91;5021059;28;20175;-70
2021/07/07 10:35:08;;;;;;;4.63;0.50;;;;;;;26.54;25.86;101404.78;5040302;28;20194;-69
2021/07/07 10:37:35;;;;;;;7.47;0.80;;;;;;;26.15;26.45;101402.38;5040701;28;20525;-70
2021/07/07 10:40:29;;;;;;;2.45;0.55;;;;;;;25.39;27.43;101415.97;5043009;28;20037;-70
2021/07/07 10:42:55;;;;;;;4.93;0.50;;;;;;;25.63;26.88;101408.28;5039444;28;20479;-71
2021/07/07 10:45:40;;;;;;;3.75;0.50;;;;;;;26.02;27.46;101405.41;5041090;28;20081;-69
2021/07/07 10:48:32;;;;;;;4.57;0.90;;;;;;;26.74;27.40;101420.69;5043493;28;20055;-70
2021/07/07 10:51:10;;;;;;;6.00;0.47;;;;;;;25.77;27.46;101408.78;5038788;28;20124;-70
2021/07/07 10:53:36;;;;;;;3.53;0.90;;;;;;;26.04;26.22;101407.94;5046884;28;20451;-69
2021/07/07 10:56:04;;;;;;;4.28;0.68;;;;;;;25.90;26.23;101405.78;5042880;28;20056;-70
2021/07/07 10:58:35;;;;;;;6.35;0.65;;;;;;;26.41;25.67;101420.41;5057919;28;20029;-71
2021/07/07 11:01:21;;;;;;;2.90;0.60;;;;;;;25.62;26.92;101405.75;5043544;28;20037;-71
2021/07/07 11:04:02;;;;;;;3.55;1.10;;;;;;;25.82;29.02;101409.19;5042857;28;20041;-70
2021/07/07 11:06:30;;;;;;;4.18;0.68;;;;;;;25.24;28.33;101405.75;5041488;28;20420;-70
2021/07/07 11:09:09;;;;;;;3.88;0.50;;;;;;;25.82;26.14;101410.06;5037110;28;20510;-70
2021/07/07 11:11:37;;;;;;;9.15;0.85;;;;;;;26.78;25.44;101406.00;5044408;28;20048;-69
2021/07/07 11:14:19;;;;;;;4.00;0.63;;;;;;;27.36;25.73;101416.13;5051018;28;20035;-69
2021/07/07 11:16:54;;;;;;;3.80;0.65;;;;;;;26.42;25.04;101406.00;5061995;28;20121;-69
2021/07/07 11:19:47;;;;;;;5.38;0.82;;;;;;;27.67;24.03;101416.47;5043138;28;20516;-70
2021/07/07 11:22:16;;;;;;;4.18;0.57;;;;;;;27.06;23.98;101414.75;5039777;28;20048;-70
2021/07/07 11:24:54;;;;;;;3.88;0.43;;;;;;;25.37;25.64;101421.47;5043580;28;20467;-69